createdAt,value
2022-08-17T00:02:26.557Z,23.70
2022-08-17T00:04:55.035Z,23.70
2022-08-17T00:07:22.543Z,23.80
2022-08-17T00:09:49.442Z,23.70
2022-08-17T00:12:41.557Z,23.70
2022-08-17T00:15:05.831Z,23.80
2022-08-17T00:17:35.304Z,23.80
2022-08-17T00:20:02.197Z,23.70
2022-08-17T00:22:34.266Z,23.70
2022-08-17T00:25:08.874Z,23.70
2022-08-17T00:27:35.930Z,23.50
2022-08-17T00:30:05.248Z,23.50
2022-08-17T00:33:16.005Z,23.50
2022-08-17T00:35:27.807Z,23.40
2022-08-17T00:37:55.198Z,23.50
2022-08-17T00:40:22.572Z,23.40
2022-08-17T00:42:53.305Z,23.50
2022-08-17T00:45:20.562Z,23.40
2022-08-17T00:47:49.353Z,23.40
2022-08-17T00:50:18.701Z,23.50
2022-08-17T00:52:55.548Z,23.50
2022-08-17T00:55:24.085Z,23.50
2022-08-17T00:57:56.347Z,23.50
2022-08-17T01:00:39.389Z,23.50
2022-08-17T01:03:13.302Z,23.50
2022-08-17T01:05:43.770Z,23.50
2022-08-17T01:08:15.281Z,23.50
2022-08-17T01:10:57.328Z,23.40
2022-08-17T01:13:43.212Z,23.40
2022-08-17T01:16:31.484Z,23.40
2022-08-17T01:19:02.089Z,23.40
2022-08-17T01:21:48.632Z,23.40
2022-08-17T01:24:16.508Z,23.40
2022-08-17T01:26:44.694Z,23.40
2022-08-17T01:29:12.662Z,23.50
2022-08-17T01:31:45.531Z,23.50
2022-08-17T01:34:14.835Z,23.50
2022-08-17T01:36:44.546Z,23.50
2022-08-17T01:39:30.783Z,23.40
2022-08-17T01:42:50.242Z,23.50
2022-08-17T01:45:25.194Z,23.50
2022-08-17T01:47:53.639Z,23.40
2022-08-17T01:50:32.547Z,23.40
2022-08-17T01:53:04.658Z,23.40
2022-08-17T01:55:41.439Z,23.50
2022-08-17T01:58:09.714Z,23.50
2022-08-17T02:00:46.764Z,23.60
2022-08-17T02:03:25.657Z,23.60
2022-08-17T02:05:53.320Z,23.60
2022-08-17T02:08:39.060Z,23.70
2022-08-17T02:11:14.620Z,23.80
2022-08-17T02:13:42.247Z,23.70
2022-08-17T02:16:09.157Z,23.60
2022-08-17T02:18:35.966Z,23.20
2022-08-17T02:21:04.054Z,23.00
2022-08-17T02:23:34.374Z,22.80
2022-08-17T02:26:02.063Z,22.70
2022-08-17T02:28:29.391Z,22.70
2022-08-17T02:31:00.886Z,22.70
2022-08-17T02:33:42.545Z,22.70
2022-08-17T02:36:13.184Z,22.60
2022-08-17T02:38:41.046Z,22.70
2022-08-17T02:41:08.029Z,22.70
2022-08-17T02:43:35.034Z,22.70
2022-08-17T02:46:01.852Z,22.60
2022-08-17T02:48:31.260Z,22.60
2022-08-17T02:51:00.195Z,22.50
2022-08-17T02:53:27.521Z,22.50
2022-08-17T02:56:00.370Z,22.40
2022-08-17T02:58:35.458Z,22.40
2022-08-17T03:01:06.024Z,22.40
2022-08-17T03:03:33.865Z,22.40
2022-08-17T03:06:01.089Z,22.40
2022-08-17T03:08:28.410Z,22.40
2022-08-17T03:10:55.552Z,22.40
2022-08-17T03:13:22.970Z,22.40
2022-08-17T03:15:50.529Z,22.40
2022-08-17T03:18:25.611Z,22.50
2022-08-17T03:20:59.922Z,22.40
2022-08-17T03:23:29.746Z,22.30
2022-08-17T03:25:58.673Z,22.40
2022-08-17T03:28:26.062Z,22.30
2022-08-17T03:30:52.978Z,22.30
2022-08-17T03:33:20.636Z,22.30
2022-08-17T03:35:47.737Z,22.30
2022-08-17T03:38:16.967Z,22.30
2022-08-17T03:40:58.908Z,22.20
2022-08-17T03:43:30.082Z,22.10
2022-08-17T03:46:28.294Z,22.40
2022-08-17T03:49:22.996Z,22.40
2022-08-17T03:52:08.385Z,22.40
2022-08-17T03:54:53.843Z,22.40
2022-08-17T03:57:20.705Z,22.50
2022-08-17T03:59:49.447Z,22.40
2022-08-17T04:02:21.209Z,22.40
2022-08-17T04:04:50.819Z,22.40
2022-08-17T04:07:22.994Z,22.40
2022-08-17T04:09:50.149Z,22.50
2022-08-17T04:12:19.137Z,22.50
2022-08-17T04:14:53.722Z,22.50
2022-08-17T04:17:24.082Z,22.40
2022-08-17T04:19:51.089Z,22.40
2022-08-17T04:22:30.954Z,22.40
2022-08-17T04:25:08.141Z,22.20
2022-08-17T04:27:35.653Z,22.20
2022-08-17T04:30:02.568Z,22.10
2022-08-17T04:33:00.592Z,22.10
2022-08-17T04:35:25.541Z,22.20
2022-08-17T04:37:52.805Z,22.10
2022-08-17T04:40:40.114Z,22.10
2022-08-17T04:43:10.404Z,22.10
2022-08-17T04:45:55.544Z,22.30
2022-08-17T04:48:34.738Z,22.20
2022-08-17T04:51:07.516Z,22.30
2022-08-17T04:53:34.356Z,22.30
2022-08-17T04:56:01.217Z,22.40
2022-08-17T04:58:28.098Z,22.40
2022-08-17T05:00:54.942Z,22.50
2022-08-17T05:03:22.116Z,22.50
2022-08-17T05:05:52.086Z,22.60
2022-08-17T05:08:20.679Z,22.60
2022-08-17T05:10:48.587Z,22.70
2022-08-17T05:13:23.919Z,22.60
2022-08-17T05:15:58.198Z,22.60
2022-08-17T05:18:25.305Z,22.70
2022-08-17T05:20:52.805Z,22.70
2022-08-17T05:23:22.595Z,22.60
2022-08-17T05:25:53.926Z,22.70
2022-08-17T05:28:24.297Z,22.70
2022-08-17T05:30:56.903Z,22.70
2022-08-17T05:33:28.123Z,22.60
2022-08-17T05:35:57.457Z,22.60
2022-08-17T05:38:27.545Z,22.70
2022-08-17T05:40:55.241Z,22.60
2022-08-17T05:43:28.950Z,22.70
2022-08-17T05:46:26.257Z,22.70
2022-08-17T05:48:57.589Z,22.70
2022-08-17T05:51:42.901Z,22.80
2022-08-17T05:54:39.876Z,22.80
2022-08-17T05:57:20.959Z,22.90
2022-08-17T06:00:16.939Z,23.00
2022-08-17T06:03:05.958Z,23.10
2022-08-17T06:06:05.949Z,23.20
2022-08-17T06:09:06.696Z,23.10
2022-08-17T06:11:48.051Z,23.10
2022-08-17T06:14:51.039Z,23.00
2022-08-17T06:17:22.525Z,23.00
2022-08-17T06:20:07.958Z,23.20
2022-08-17T06:22:42.101Z,23.40
2022-08-17T06:25:18.618Z,23.40
2022-08-17T06:27:58.439Z,23.40
2022-08-17T06:30:29.023Z,23.50
2022-08-17T06:33:27.705Z,23.60
2022-08-17T06:36:02.587Z,23.60
2022-08-17T06:38:46.900Z,23.70
2022-08-17T06:41:29.007Z,23.60
2022-08-17T06:44:10.127Z,23.70
2022-08-17T06:46:48.411Z,23.70
2022-08-17T06:49:28.555Z,23.80
2022-08-17T06:52:12.294Z,23.70
2022-08-17T06:55:07.059Z,23.80
2022-08-17T06:57:38.221Z,23.90
2022-08-17T07:00:16.946Z,24.00
2022-08-17T07:03:08.495Z,24.00
2022-08-17T07:05:59.965Z,24.00
2022-08-17T07:08:35.038Z,24.00
2022-08-17T07:11:09.516Z,24.00
2022-08-17T07:14:05.331Z,24.00
2022-08-17T07:16:46.194Z,23.90
2022-08-17T07:19:16.722Z,23.90
2022-08-17T07:21:56.267Z,23.90
2022-08-17T07:24:30.293Z,23.90
2022-08-17T07:27:16.541Z,23.80
2022-08-17T07:29:46.911Z,23.80
2022-08-17T07:32:18.532Z,23.80
2022-08-17T07:35:08.465Z,23.80
2022-08-17T07:37:53.934Z,23.70
2022-08-17T07:40:35.244Z,23.60
2022-08-17T07:43:11.463Z,23.70
2022-08-17T07:46:31.137Z,23.70
2022-08-17T07:49:23.869Z,23.70
2022-08-17T07:51:50.542Z,23.80
2022-08-17T07:54:22.455Z,23.70
2022-08-17T07:56:53.658Z,23.70
2022-08-17T07:59:23.670Z,23.80
2022-08-17T08:01:58.124Z,23.80
2022-08-17T08:04:59.007Z,23.80
2022-08-17T08:07:21.751Z,23.90
2022-08-17T08:10:07.489Z,23.90
2022-08-17T08:12:46.975Z,23.80
2022-08-17T08:15:33.355Z,23.80
2022-08-17T08:18:03.733Z,23.80
2022-08-17T08:20:53.072Z,23.70
2022-08-17T08:23:37.133Z,23.60
2022-08-17T08:26:20.320Z,23.70
2022-08-17T08:29:23.335Z,23.70
2022-08-17T08:32:13.521Z,23.80
2022-08-17T08:35:02.006Z,23.70
2022-08-17T08:37:35.532Z,23.70
2022-08-17T08:40:09.884Z,23.70
2022-08-17T08:42:37.136Z,23.70
2022-08-17T08:45:38.071Z,23.70
2022-08-17T08:48:52.945Z,23.60
2022-08-17T08:51:30.182Z,23.70
2022-08-17T08:54:14.454Z,23.60
2022-08-17T08:57:21.889Z,23.50
2022-08-17T09:00:13.269Z,23.60
2022-08-17T09:02:46.087Z,23.50
2022-08-17T09:05:31.778Z,23.40
2022-08-17T09:08:20.955Z,23.40
2022-08-17T09:11:03.380Z,23.30
2022-08-17T09:13:58.789Z,23.30
2022-08-17T09:16:37.514Z,23.10
2022-08-17T09:19:15.763Z,23.10
2022-08-17T09:21:48.233Z,23.10
2022-08-17T09:24:43.666Z,23.20
2022-08-17T09:27:26.603Z,23.10
2022-08-17T09:29:59.912Z,23.10
2022-08-17T09:32:42.183Z,23.10
2022-08-17T09:35:19.871Z,23.00
2022-08-17T09:38:19.918Z,23.00
2022-08-17T09:41:09.883Z,22.90
2022-08-17T09:43:49.082Z,23.00
2022-08-17T09:46:21.225Z,22.90
2022-08-17T09:49:01.757Z,22.90
2022-08-17T09:51:40.002Z,23.00
2022-08-17T09:54:38.161Z,23.10
2022-08-17T09:57:30.284Z,23.20
2022-08-17T10:00:25.055Z,23.40
2022-08-17T10:02:57.948Z,23.50
2022-08-17T10:06:01.904Z,23.70
2022-08-17T10:08:52.414Z,23.80
2022-08-17T10:11:33.432Z,23.80
2022-08-17T10:14:37.381Z,23.90
2022-08-17T10:17:20.647Z,23.90
2022-08-17T10:19:57.792Z,23.80
2022-08-17T10:22:59.298Z,23.80
2022-08-17T10:26:00.287Z,23.90
2022-08-17T10:28:32.356Z,23.90
2022-08-17T10:31:34.428Z,23.80
2022-08-17T10:34:28.617Z,24.00
2022-08-17T10:37:05.725Z,23.80
2022-08-17T10:39:57.334Z,23.80
2022-08-17T10:42:30.809Z,23.80
2022-08-17T10:45:21.414Z,23.80
2022-08-17T10:48:16.579Z,23.80
2022-08-17T10:51:00.447Z,23.70
2022-08-17T10:53:33.506Z,23.60
2022-08-17T10:56:13.483Z,23.40
2022-08-17T10:58:58.441Z,23.40
2022-08-17T11:01:34.116Z,23.20
2022-08-17T11:04:27.250Z,23.10
2022-08-17T11:07:14.501Z,23.00
2022-08-17T11:10:03.209Z,23.00
2022-08-17T11:12:45.494Z,22.90
2022-08-17T11:15:24.674Z,22.90
2022-08-17T11:18:05.086Z,22.90
2022-08-17T11:21:07.119Z,22.90
2022-08-17T11:24:06.420Z,22.90
2022-08-17T11:26:36.239Z,22.90
2022-08-17T11:29:16.455Z,22.90
2022-08-17T11:31:58.137Z,22.80
2022-08-17T11:34:28.748Z,22.80
2022-08-17T11:37:17.477Z,22.80
2022-08-17T11:40:04.503Z,22.80
2022-08-17T11:43:03.515Z,22.90
2022-08-17T11:45:37.182Z,22.90
2022-08-17T11:49:05.403Z,23.00
2022-08-17T11:51:56.487Z,23.00
2022-08-17T11:54:45.126Z,23.10
2022-08-17T11:57:27.242Z,23.00
2022-08-17T11:59:59.212Z,23.00
2022-08-17T12:02:32.694Z,23.00
2022-08-17T12:05:02.796Z,22.90
2022-08-17T12:07:33.193Z,22.90
2022-08-17T12:10:00.996Z,22.90
2022-08-17T12:12:33.648Z,22.90
2022-08-17T12:15:10.750Z,22.70
2022-08-17T12:17:42.365Z,22.60
2022-08-17T12:20:16.137Z,22.30
2022-08-17T12:22:55.820Z,22.20
2022-08-17T12:26:09.319Z,22.30
2022-08-17T12:28:39.035Z,22.40
2022-08-17T12:31:31.575Z,22.50
2022-08-17T12:34:00.521Z,22.60
2022-08-17T12:36:29.014Z,22.70
2022-08-17T12:39:13.772Z,22.70
2022-08-17T12:41:44.447Z,22.80
2022-08-17T12:44:12.099Z,22.80
2022-08-17T12:46:48.197Z,22.90
2022-08-17T12:49:18.074Z,22.90
2022-08-17T12:51:48.645Z,23.00
2022-08-17T12:54:25.045Z,23.30
2022-08-17T12:56:52.206Z,23.40
2022-08-17T12:59:30.463Z,23.60
2022-08-17T13:01:57.818Z,23.90
2022-08-17T13:04:26.631Z,24.20
2022-08-17T13:06:59.678Z,24.10
2022-08-17T13:09:40.326Z,24.10
2022-08-17T13:12:09.127Z,24.00
2022-08-17T13:14:36.202Z,23.90
2022-08-17T13:17:08.542Z,23.90
2022-08-17T13:19:49.591Z,24.00
2022-08-17T13:22:18.285Z,24.00
2022-08-17T13:25:07.400Z,23.90
2022-08-17T13:27:34.385Z,23.70
2022-08-17T13:30:07.006Z,23.60
2022-08-17T13:32:43.695Z,23.40
2022-08-17T13:35:41.251Z,23.40
2022-08-17T13:38:12.515Z,23.30
2022-08-17T13:40:41.722Z,23.30
2022-08-17T13:43:10.583Z,23.30
2022-08-17T13:46:08.169Z,23.40
2022-08-17T13:48:35.728Z,23.30
2022-08-17T13:51:12.611Z,23.30
2022-08-17T13:53:40.482Z,23.30
2022-08-17T13:56:46.586Z,23.30
2022-08-17T13:59:53.443Z,23.30
2022-08-17T14:02:19.389Z,23.50
2022-08-17T14:04:48.071Z,23.40
2022-08-17T14:07:16.312Z,23.40
2022-08-17T14:09:54.103Z,23.50
2022-08-17T14:12:26.630Z,23.60
2022-08-17T14:14:58.849Z,23.60
2022-08-17T14:17:28.957Z,23.80
2022-08-17T14:19:56.097Z,23.70
2022-08-17T14:22:30.898Z,23.70
2022-08-17T14:24:59.613Z,23.80
2022-08-17T14:27:28.082Z,23.90
2022-08-17T14:29:55.805Z,24.20
2022-08-17T14:32:28.863Z,24.00
2022-08-17T14:34:57.619Z,24.00
2022-08-17T14:37:27.771Z,24.10
2022-08-17T14:39:56.297Z,23.90
2022-08-17T14:42:26.345Z,23.90
2022-08-17T14:44:54.484Z,23.80
2022-08-17T14:47:21.417Z,23.60
2022-08-17T14:49:48.663Z,23.70
2022-08-17T14:52:21.459Z,23.60
2022-08-17T14:54:53.035Z,23.40
2022-08-17T14:57:33.687Z,23.40
2022-08-17T15:00:05.334Z,23.20
2022-08-17T15:02:45.431Z,23.10
2022-08-17T15:05:16.069Z,23.00
2022-08-17T15:07:48.744Z,22.90
2022-08-17T15:10:19.451Z,22.80
2022-08-17T15:12:46.445Z,22.70
2022-08-17T15:15:15.750Z,22.60
2022-08-17T15:17:55.011Z,22.40
2022-08-17T15:20:28.180Z,22.30
2022-08-17T15:22:57.116Z,22.20
2022-08-17T15:25:25.285Z,22.10
2022-08-17T15:27:52.695Z,22.00
2022-08-17T15:30:20.540Z,22.00
2022-08-17T15:32:54.043Z,21.80
2022-08-17T15:35:27.213Z,21.70
2022-08-17T15:38:04.673Z,21.80
2022-08-17T15:40:36.772Z,22.00
2022-08-17T15:43:11.742Z,22.20
2022-08-17T15:45:39.452Z,22.70
2022-08-17T15:48:43.529Z,23.20
2022-08-17T15:51:35.284Z,23.40
2022-08-17T15:54:19.298Z,23.30
2022-08-17T15:56:49.823Z,23.10
2022-08-17T15:59:16.661Z,23.00
2022-08-17T16:03:15.177Z,22.80
2022-08-17T16:04:31.943Z,23.00
2022-08-17T16:06:59.680Z,23.00
2022-08-17T16:09:26.902Z,23.10
2022-08-17T16:11:56.145Z,23.20
2022-08-17T16:14:25.804Z,23.20
2022-08-17T16:17:03.200Z,23.10
2022-08-17T16:19:30.297Z,23.00
2022-08-17T16:21:57.101Z,23.00
2022-08-17T16:24:23.992Z,22.90
2022-08-17T16:26:51.137Z,22.80
2022-08-17T16:29:18.706Z,22.80
2022-08-17T16:31:45.991Z,22.80
2022-08-17T16:34:16.970Z,22.80
2022-08-17T16:36:55.128Z,22.80
2022-08-17T16:39:28.023Z,22.90
2022-08-17T16:41:56.624Z,23.00
2022-08-17T16:44:23.802Z,23.10
2022-08-17T16:46:50.719Z,23.10
2022-08-17T16:49:35.466Z,23.10
2022-08-17T16:52:06.767Z,23.10
2022-08-17T16:54:35.180Z,23.10
2022-08-17T16:57:04.843Z,23.10
2022-08-17T16:59:40.769Z,23.10
2022-08-17T17:02:13.130Z,23.10
2022-08-17T17:04:59.982Z,23.00
2022-08-17T17:07:43.616Z,23.00
2022-08-17T17:10:16.929Z,22.90
2022-08-17T17:13:03.133Z,22.80
2022-08-17T17:15:43.840Z,22.70
2022-08-17T17:18:12.867Z,22.60
2022-08-17T17:20:50.069Z,22.50
2022-08-17T17:23:36.070Z,22.40
2022-08-17T17:26:17.448Z,22.40
2022-08-17T17:29:06.342Z,22.30
2022-08-17T17:31:39.287Z,22.30
2022-08-17T17:34:10.046Z,22.10
2022-08-17T17:36:58.635Z,22.20
2022-08-17T17:39:52.782Z,22.20
2022-08-17T17:42:24.442Z,22.10
2022-08-17T17:45:09.563Z,22.10
2022-08-17T17:47:37.141Z,22.10
2022-08-17T17:50:06.835Z,21.90
2022-08-17T17:52:41.075Z,22.00
2022-08-17T17:55:36.561Z,22.00
2022-08-17T17:58:19.565Z,22.00
2022-08-17T18:01:28.264Z,21.90
2022-08-17T18:04:20.688Z,21.90
2022-08-17T18:06:56.969Z,21.80
2022-08-17T18:09:33.964Z,21.80
2022-08-17T18:12:19.766Z,21.70
2022-08-17T18:14:52.344Z,21.70
2022-08-17T18:17:20.247Z,21.80
2022-08-17T18:19:48.177Z,21.50
2022-08-17T18:22:18.774Z,21.60
2022-08-17T18:24:48.162Z,21.50
2022-08-17T18:27:36.692Z,21.50
2022-08-17T18:30:12.624Z,21.40
2022-08-17T18:32:42.389Z,21.60
2022-08-17T18:35:14.103Z,21.40
2022-08-17T18:37:53.202Z,21.30
2022-08-17T18:40:20.205Z,21.30
2022-08-17T18:43:08.066Z,21.30
2022-08-17T18:45:39.544Z,21.20
2022-08-17T18:48:20.159Z,21.20
2022-08-17T18:50:48.037Z,21.20
2022-08-17T18:53:41.171Z,21.10
2022-08-17T18:56:21.288Z,21.10
2022-08-17T18:59:22.356Z,21.10
2022-08-17T19:02:36.025Z,20.90
2022-08-17T19:05:38.370Z,20.80
2022-08-17T19:08:18.476Z,20.70
2022-08-17T19:10:47.414Z,20.70
2022-08-17T19:13:24.905Z,20.70
2022-08-17T19:16:17.999Z,20.60
2022-08-17T19:19:06.869Z,20.50
2022-08-17T19:21:41.399Z,20.40
2022-08-17T19:24:20.024Z,20.40
2022-08-17T19:26:56.536Z,20.40
2022-08-17T19:29:36.938Z,20.40
2022-08-17T19:32:08.840Z,20.30
2022-08-17T19:34:38.110Z,20.30
2022-08-17T19:37:06.757Z,20.30
2022-08-17T19:39:45.827Z,20.30
2022-08-17T19:42:47.277Z,20.30
2022-08-17T19:45:40.059Z,20.30
2022-08-17T19:48:45.794Z,20.20
2022-08-17T19:51:23.794Z,20.10
2022-08-17T19:54:06.206Z,20.10
2022-08-17T19:56:37.566Z,20.10
2022-08-17T19:59:23.489Z,20.00
2022-08-17T20:02:01.263Z,20.00
2022-08-17T20:04:32.287Z,20.00
2022-08-17T20:07:26.197Z,20.00
2022-08-17T20:10:08.162Z,20.00
2022-08-17T20:12:38.327Z,19.90
2022-08-17T20:15:29.836Z,20.00
2022-08-17T20:18:05.642Z,20.00
2022-08-17T20:20:41.778Z,19.90
2022-08-17T20:23:29.979Z,19.90
2022-08-17T20:26:05.780Z,19.90
2022-08-17T20:28:35.424Z,19.80
2022-08-17T20:31:25.446Z,19.80
2022-08-17T20:33:55.163Z,19.80
2022-08-17T20:36:24.633Z,19.70
2022-08-17T20:38:55.942Z,19.70
2022-08-17T20:41:24.477Z,19.80
2022-08-17T20:44:04.185Z,19.90
2022-08-17T20:46:36.899Z,19.70
2022-08-17T20:49:16.397Z,19.70
2022-08-17T20:52:01.689Z,19.80
2022-08-17T20:54:46.740Z,19.80
2022-08-17T20:57:31.915Z,19.80
2022-08-17T21:00:17.483Z,19.80
2022-08-17T21:02:49.792Z,19.80
2022-08-17T21:05:34.295Z,19.80
2022-08-17T21:08:30.415Z,19.80
2022-08-17T21:10:59.989Z,19.90
2022-08-17T21:13:37.739Z,19.90
2022-08-17T21:16:29.158Z,19.80
2022-08-17T21:19:22.179Z,19.80
2022-08-17T21:22:00.282Z,19.80
2022-08-17T21:24:51.655Z,19.70
2022-08-17T21:27:47.827Z,19.70
2022-08-17T21:30:44.500Z,19.70
2022-08-17T21:33:18.406Z,19.90
2022-08-17T21:35:51.868Z,19.70
2022-08-17T21:38:23.447Z,19.70
2022-08-17T21:40:52.850Z,19.60
2022-08-17T21:43:44.679Z,19.70
2022-08-17T21:46:30.432Z,19.60
2022-08-17T21:49:13.590Z,19.60
2022-08-17T21:51:53.679Z,19.70
2022-08-17T21:54:35.455Z,19.60
2022-08-17T21:57:05.606Z,19.70
2022-08-17T21:59:36.993Z,19.60
2022-08-17T22:02:16.360Z,19.80
2022-08-17T22:04:54.715Z,19.70
2022-08-17T22:07:38.524Z,19.60
2022-08-17T22:10:08.637Z,19.70
2022-08-17T22:12:35.587Z,19.60
2022-08-17T22:15:07.271Z,19.70
2022-08-17T22:17:40.026Z,19.60
2022-08-17T22:20:10.467Z,19.60
2022-08-17T22:23:17.636Z,19.50
2022-08-17T22:26:09.603Z,19.40
2022-08-17T22:28:45.611Z,19.50
2022-08-17T22:31:15.819Z,19.40
2022-08-17T22:33:47.161Z,19.40
2022-08-17T22:36:14.084Z,19.40
2022-08-17T22:38:43.469Z,19.50
2022-08-17T22:41:16.508Z,19.40
2022-08-17T22:43:44.730Z,19.40
2022-08-17T22:46:12.580Z,19.40
2022-08-17T22:48:52.165Z,19.40
2022-08-17T22:51:21.868Z,19.40
2022-08-17T22:54:10.364Z,19.40
2022-08-17T22:56:56.611Z,19.50
2022-08-17T22:59:45.253Z,19.50
2022-08-17T23:02:22.033Z,19.60
2022-08-17T23:05:16.566Z,19.40
2022-08-17T23:07:45.460Z,19.50
2022-08-17T23:10:13.865Z,19.50
2022-08-17T23:12:41.270Z,19.50
2022-08-17T23:15:15.132Z,19.50
2022-08-17T23:17:42.608Z,19.50
2022-08-17T23:20:18.221Z,19.40
2022-08-17T23:22:51.241Z,19.50
2022-08-17T23:25:26.365Z,19.40
2022-08-17T23:27:54.420Z,19.40
2022-08-17T23:30:24.942Z,19.40
2022-08-17T23:32:53.994Z,19.50
2022-08-17T23:35:40.578Z,19.50
2022-08-17T23:38:11.931Z,19.50
2022-08-17T23:40:39.914Z,19.50
2022-08-17T23:43:24.059Z,19.40
2022-08-17T23:45:57.930Z,19.50
2022-08-17T23:48:32.644Z,19.50
2022-08-17T23:51:09.589Z,19.50
2022-08-17T23:53:41.784Z,19.50
2022-08-17T23:56:11.228Z,19.50
2022-08-17T23:58:41.896Z,19.40
